sensor_id;sensor_type;location;lat;lon;timestamp;P1;durP1;ratioP1;P2;durP2;ratioP2
22449;SDS011;11392;57.390;-2.468;2022-07-06T00:00:08;1.33;;;0.88;;
22449;SDS011;11392;57.390;-2.468;2022-07-06T00:02:36;2.03;;;1.00;;
22449;SDS011;11392;57.390;-2.468;2022-07-06T00:05:03;2.25;;;1.17;;
22449;SDS011;11392;57.390;-2.468;2022-07-06T00:07:30;1.62;;;1.12;;
22449;SDS011;11392;57.390;-2.468;2022-07-06T00:09:57;1.58;;;0.93;;
22449;SDS011;11392;57.390;-2.468;2022-07-06T00:12:24;2.50;;;1.10;;
22449;SDS011;11392;57.390;-2.468;2022-07-06T00:14:51;2.12;;;0.85;;
22449;SDS011;11392;57.390;-2.468;2022-07-06T00:17:18;2.62;;;0.98;;
22449;SDS011;11392;57.390;-2.468;2022-07-06T00:19:45;2.00;;;0.90;;
22449;SDS011;11392;57.390;-2.468;2022-07-06T00:22:12;1.95;;;0.88;;
22449;SDS011;11392;57.390;-2.468;2022-07-06T00:24:39;1.30;;;0.80;;
22449;SDS011;11392;57.390;-2.468;2022-07-06T00:27:06;1.77;;;0.90;;
22449;SDS011;11392;57.390;-2.468;2022-07-06T00:29:33;1.23;;;1.05;;
22449;SDS011;11392;57.390;-2.468;2022-07-06T00:32:00;1.73;;;1.20;;
22449;SDS011;11392;57.390;-2.468;2022-07-06T00:34:27;0.95;;;0.75;;
22449;SDS011;11392;57.390;-2.468;2022-07-06T00:36:54;2.15;;;0.90;;
22449;SDS011;11392;57.390;-2.468;2022-07-06T00:39:21;2.80;;;1.00;;
22449;SDS011;11392;57.390;-2.468;2022-07-06T00:41:55;4.15;;;1.85;;
22449;SDS011;11392;57.390;-2.468;2022-07-06T00:44:23;1.12;;;0.90;;
22449;SDS011;11392;57.390;-2.468;2022-07-06T00:46:50;2.45;;;1.25;;
22449;SDS011;11392;57.390;-2.468;2022-07-06T00:49:17;2.08;;;1.00;;
22449;SDS011;11392;57.390;-2.468;2022-07-06T00:52:03;1.02;;;0.90;;
22449;SDS011;11392;57.390;-2.468;2022-07-06T00:54:30;2.58;;;1.00;;
22449;SDS011;11392;57.390;-2.468;2022-07-06T00:56:58;2.35;;;1.02;;
22449;SDS011;11392;57.390;-2.468;2022-07-06T00:59:25;2.72;;;1.25;;
22449;SDS011;11392;57.390;-2.468;2022-07-06T01:01:53;3.12;;;1.05;;
22449;SDS011;11392;57.390;-2.468;2022-07-06T01:04:21;1.27;;;0.90;;
22449;SDS011;11392;57.390;-2.468;2022-07-06T01:06:48;2.25;;;1.30;;
22449;SDS011;11392;57.390;-2.468;2022-07-06T01:09:15;3.45;;;1.10;;
22449;SDS011;11392;57.390;-2.468;2022-07-06T01:11:43;2.58;;;1.20;;
22449;SDS011;11392;57.390;-2.468;2022-07-06T01:14:10;1.10;;;1.00;;
22449;SDS011;11392;57.390;-2.468;2022-07-06T01:16:40;2.28;;;1.20;;
22449;SDS011;11392;57.390;-2.468;2022-07-06T01:19:07;2.08;;;0.90;;
22449;SDS011;11392;57.390;-2.468;2022-07-06T01:21:36;2.60;;;0.93;;
22449;SDS011;11392;57.390;-2.468;2022-07-06T01:24:04;1.12;;;0.98;;
22449;SDS011;11392;57.390;-2.468;2022-07-06T01:26:31;3.45;;;1.10;;
22449;SDS011;11392;57.390;-2.468;2022-07-06T01:28:59;1.80;;;1.02;;
22449;SDS011;11392;57.390;-2.468;2022-07-06T01:31:26;2.10;;;1.17;;
22449;SDS011;11392;57.390;-2.468;2022-07-06T01:33:54;2.62;;;0.80;;
22449;SDS011;11392;57.390;-2.468;2022-07-06T01:36:22;1.15;;;0.75;;
22449;SDS011;11392;57.390;-2.468;2022-07-06T01:38:51;2.10;;;0.98;;
22449;SDS011;11392;57.390;-2.468;2022-07-06T01:41:19;1.37;;;0.80;;
22449;SDS011;11392;57.390;-2.468;2022-07-06T01:43:47;1.15;;;0.75;;
22449;SDS011;11392;57.390;-2.468;2022-07-06T01:46:14;1.50;;;0.70;;
22449;SDS011;11392;57.390;-2.468;2022-07-06T01:48:41;1.10;;;0.50;;
22449;SDS011;11392;57.390;-2.468;2022-07-06T01:51:08;1.48;;;0.50;;
22449;SDS011;11392;57.390;-2.468;2022-07-06T01:53:36;0.88;;;0.50;;
22449;SDS011;11392;57.390;-2.468;2022-07-06T01:56:03;0.75;;;0.55;;
22449;SDS011;11392;57.390;-2.468;2022-07-06T01:58:30;0.52;;;0.50;;
22449;SDS011;11392;57.390;-2.468;2022-07-06T02:00:57;1.85;;;0.40;;
22449;SDS011;11392;57.390;-2.468;2022-07-06T02:03:25;0.77;;;0.62;;
22449;SDS011;11392;57.390;-2.468;2022-07-06T02:05:52;0.30;;;0.30;;
22449;SDS011;11392;57.390;-2.468;2022-07-06T02:08:19;0.40;;;0.40;;
22449;SDS011;11392;57.390;-2.468;2022-07-06T02:10:46;1.27;;;0.40;;
22449;SDS011;11392;57.390;-2.468;2022-07-06T02:13:13;1.27;;;0.30;;
22449;SDS011;11392;57.390;-2.468;2022-07-06T02:15:40;0.73;;;0.73;;
22449;SDS011;11392;57.390;-2.468;2022-07-06T02:18:07;0.30;;;0.30;;
22449;SDS011;11392;57.390;-2.468;2022-07-06T02:20:34;0.20;;;0.20;;
22449;SDS011;11392;57.390;-2.468;2022-07-06T02:23:01;0.32;;;0.22;;
22449;SDS011;11392;57.390;-2.468;2022-07-06T02:25:28;0.08;;;0.08;;
22449;SDS011;11392;57.390;-2.468;2022-07-06T02:27:55;0.10;;;0.10;;
22449;SDS011;11392;57.390;-2.468;2022-07-06T02:30:22;0.10;;;0.10;;
22449;SDS011;11392;57.390;-2.468;2022-07-06T02:32:49;0.70;;;0.00;;
22449;SDS011;11392;57.390;-2.468;2022-07-06T02:35:16;0.00;;;0.00;;
22449;SDS011;11392;57.390;-2.468;2022-07-06T02:37:43;0.10;;;0.10;;
22449;SDS011;11392;57.390;-2.468;2022-07-06T02:40:10;1.10;;;0.10;;
22449;SDS011;11392;57.390;-2.468;2022-07-06T02:42:37;0.10;;;0.10;;
22449;SDS011;11392;57.390;-2.468;2022-07-06T02:45:05;0.32;;;0.17;;
22449;SDS011;11392;57.390;-2.468;2022-07-06T02:47:32;0.10;;;0.10;;
22449;SDS011;11392;57.390;-2.468;2022-07-06T02:50:00;0.00;;;0.00;;
22449;SDS011;11392;57.390;-2.468;2022-07-06T02:52:27;0.03;;;0.03;;
22449;SDS011;11392;57.390;-2.468;2022-07-06T02:54:54;0.70;;;0.57;;
22449;SDS011;11392;57.390;-2.468;2022-07-06T02:57:22;0.10;;;0.10;;
22449;SDS011;11392;57.390;-2.468;2022-07-06T02:59:50;0.05;;;0.05;;
22449;SDS011;11392;57.390;-2.468;2022-07-06T03:02:17;0.00;;;0.00;;
22449;SDS011;11392;57.390;-2.468;2022-07-06T03:04:45;0.00;;;0.00;;
22449;SDS011;11392;57.390;-2.468;2022-07-06T03:07:12;0.05;;;0.05;;
22449;SDS011;11392;57.390;-2.468;2022-07-06T03:09:38;0.10;;;0.10;;
22449;SDS011;11392;57.390;-2.468;2022-07-06T03:12:06;0.10;;;0.10;;
22449;SDS011;11392;57.390;-2.468;2022-07-06T03:14:33;0.00;;;0.00;;
22449;SDS011;11392;57.390;-2.468;2022-07-06T03:17:00;0.13;;;0.13;;
22449;SDS011;11392;57.390;-2.468;2022-07-06T03:19:27;0.98;;;0.10;;
22449;SDS011;11392;57.390;-2.468;2022-07-06T03:21:54;0.10;;;0.10;;
22449;SDS011;11392;57.390;-2.468;2022-07-06T03:24:21;0.10;;;0.10;;
22449;SDS011;11392;57.390;-2.468;2022-07-06T03:26:48;0.03;;;0.03;;
22449;SDS011;11392;57.390;-2.468;2022-07-06T03:29:15;0.10;;;0.10;;
22449;SDS011;11392;57.390;-2.468;2022-07-06T03:31:42;0.10;;;0.10;;
22449;SDS011;11392;57.390;-2.468;2022-07-06T03:34:09;0.10;;;0.10;;
22449;SDS011;11392;57.390;-2.468;2022-07-06T03:36:36;0.00;;;0.00;;
22449;SDS011;11392;57.390;-2.468;2022-07-06T03:39:05;0.05;;;0.05;;
22449;SDS011;11392;57.390;-2.468;2022-07-06T03:41:32;0.20;;;0.20;;
22449;SDS011;11392;57.390;-2.468;2022-07-06T03:43:59;0.13;;;0.13;;
22449;SDS011;11392;57.390;-2.468;2022-07-06T03:46:27;0.10;;;0.10;;
22449;SDS011;11392;57.390;-2.468;2022-07-06T03:48:55;0.20;;;0.20;;
22449;SDS011;11392;57.390;-2.468;2022-07-06T03:51:22;0.10;;;0.10;;
22449;SDS011;11392;57.390;-2.468;2022-07-06T03:53:49;0.15;;;0.15;;
22449;SDS011;11392;57.390;-2.468;2022-07-06T03:56:16;0.20;;;0.20;;
22449;SDS011;11392;57.390;-2.468;2022-07-06T03:58:56;0.37;;;0.17;;
22449;SDS011;11392;57.390;-2.468;2022-07-06T04:01:24;0.15;;;0.10;;
22449;SDS011;11392;57.390;-2.468;2022-07-06T04:03:51;0.20;;;0.20;;
22449;SDS011;11392;57.390;-2.468;2022-07-06T04:06:18;0.10;;;0.10;;
22449;SDS011;11392;57.390;-2.468;2022-07-06T04:08:46;0.32;;;0.22;;
22449;SDS011;11392;57.390;-2.468;2022-07-06T04:11:13;0.15;;;0.10;;
22449;SDS011;11392;57.390;-2.468;2022-07-06T04:13:40;0.10;;;0.10;;
22449;SDS011;11392;57.390;-2.468;2022-07-06T04:16:07;0.22;;;0.20;;
22449;SDS011;11392;57.390;-2.468;2022-07-06T04:18:34;0.20;;;0.20;;
22449;SDS011;11392;57.390;-2.468;2022-07-06T04:21:02;0.20;;;0.20;;
22449;SDS011;11392;57.390;-2.468;2022-07-06T04:23:29;0.17;;;0.10;;
22449;SDS011;11392;57.390;-2.468;2022-07-06T04:25:56;0.13;;;0.13;;
22449;SDS011;11392;57.390;-2.468;2022-07-06T04:28:24;0.10;;;0.10;;
22449;SDS011;11392;57.390;-2.468;2022-07-06T04:30:51;0.10;;;0.10;;
22449;SDS011;11392;57.390;-2.468;2022-07-06T04:33:18;1.10;;;0.08;;
22449;SDS011;11392;57.390;-2.468;2022-07-06T04:35:45;0.13;;;0.10;;
22449;SDS011;11392;57.390;-2.468;2022-07-06T04:38:13;0.20;;;0.20;;
22449;SDS011;11392;57.390;-2.468;2022-07-06T04:40:40;0.10;;;0.10;;
22449;SDS011;11392;57.390;-2.468;2022-07-06T04:43:07;0.10;;;0.10;;
22449;SDS011;11392;57.390;-2.468;2022-07-06T04:45:34;1.95;;;0.25;;
22449;SDS011;11392;57.390;-2.468;2022-07-06T04:48:01;0.20;;;0.13;;
22449;SDS011;11392;57.390;-2.468;2022-07-06T04:50:28;0.08;;;0.08;;
22449;SDS011;11392;57.390;-2.468;2022-07-06T04:52:55;0.17;;;0.15;;
22449;SDS011;11392;57.390;-2.468;2022-07-06T04:55:22;0.20;;;0.00;;
22449;SDS011;11392;57.390;-2.468;2022-07-06T04:57:49;0.10;;;0.10;;
22449;SDS011;11392;57.390;-2.468;2022-07-06T05:00:17;1.20;;;0.20;;
22449;SDS011;11392;57.390;-2.468;2022-07-06T05:02:45;0.10;;;0.10;;
22449;SDS011;11392;57.390;-2.468;2022-07-06T05:05:12;0.10;;;0.10;;
22449;SDS011;11392;57.390;-2.468;2022-07-06T05:07:39;0.10;;;0.10;;
22449;SDS011;11392;57.390;-2.468;2022-07-06T05:10:07;0.10;;;0.10;;
22449;SDS011;11392;57.390;-2.468;2022-07-06T05:12:35;0.10;;;0.10;;
22449;SDS011;11392;57.390;-2.468;2022-07-06T05:15:02;0.10;;;0.10;;
22449;SDS011;11392;57.390;-2.468;2022-07-06T05:17:30;0.10;;;0.10;;
22449;SDS011;11392;57.390;-2.468;2022-07-06T05:19:57;0.90;;;0.20;;
22449;SDS011;11392;57.390;-2.468;2022-07-06T05:22:24;0.20;;;0.20;;
22449;SDS011;11392;57.390;-2.468;2022-07-06T05:24:51;0.22;;;0.20;;
22449;SDS011;11392;57.390;-2.468;2022-07-06T05:27:18;0.10;;;0.10;;
22449;SDS011;11392;57.390;-2.468;2022-07-06T05:29:45;0.10;;;0.10;;
22449;SDS011;11392;57.390;-2.468;2022-07-06T05:32:12;0.10;;;0.00;;
22449;SDS011;11392;57.390;-2.468;2022-07-06T05:34:39;0.20;;;0.20;;
22449;SDS011;11392;57.390;-2.468;2022-07-06T05:37:06;0.15;;;0.10;;
22449;SDS011;11392;57.390;-2.468;2022-07-06T05:39:33;0.20;;;0.20;;
22449;SDS011;11392;57.390;-2.468;2022-07-06T05:42:00;0.65;;;0.30;;
22449;SDS011;11392;57.390;-2.468;2022-07-06T05:44:28;0.10;;;0.10;;
22449;SDS011;11392;57.390;-2.468;2022-07-06T05:46:55;0.03;;;0.03;;
22449;SDS011;11392;57.390;-2.468;2022-07-06T05:49:42;1.25;;;0.10;;
22449;SDS011;11392;57.390;-2.468;2022-07-06T05:52:28;0.03;;;0.00;;
22449;SDS011;11392;57.390;-2.468;2022-07-06T05:54:55;0.20;;;0.20;;
22449;SDS011;11392;57.390;-2.468;2022-07-06T05:57:22;0.00;;;0.00;;
22449;SDS011;11392;57.390;-2.468;2022-07-06T05:59:49;0.10;;;0.10;;
22449;SDS011;11392;57.390;-2.468;2022-07-06T06:02:16;0.10;;;0.10;;
22449;SDS011;11392;57.390;-2.468;2022-07-06T06:04:43;0.17;;;0.10;;
22449;SDS011;11392;57.390;-2.468;2022-07-06T06:07:11;0.20;;;0.10;;
22449;SDS011;11392;57.390;-2.468;2022-07-06T06:09:37;0.00;;;0.00;;
22449;SDS011;11392;57.390;-2.468;2022-07-06T06:12:05;0.00;;;0.00;;
22449;SDS011;11392;57.390;-2.468;2022-07-06T06:14:32;0.13;;;0.10;;
22449;SDS011;11392;57.390;-2.468;2022-07-06T06:16:59;0.00;;;0.00;;
22449;SDS011;11392;57.390;-2.468;2022-07-06T06:19:26;0.00;;;0.00;;
22449;SDS011;11392;57.390;-2.468;2022-07-06T06:21:53;0.00;;;0.00;;
22449;SDS011;11392;57.390;-2.468;2022-07-06T06:24:20;0.10;;;0.00;;
22449;SDS011;11392;57.390;-2.468;2022-07-06T06:26:47;0.00;;;0.00;;
22449;SDS011;11392;57.390;-2.468;2022-07-06T06:29:14;0.00;;;0.00;;
22449;SDS011;11392;57.390;-2.468;2022-07-06T06:31:41;0.00;;;0.00;;
22449;SDS011;11392;57.390;-2.468;2022-07-06T06:34:08;0.60;;;0.10;;
22449;SDS011;11392;57.390;-2.468;2022-07-06T06:36:35;0.20;;;0.10;;
22449;SDS011;11392;57.390;-2.468;2022-07-06T06:39:02;0.35;;;0.10;;
22449;SDS011;11392;57.390;-2.468;2022-07-06T06:41:29;0.00;;;0.00;;
22449;SDS011;11392;57.390;-2.468;2022-07-06T06:43:56;0.80;;;0.10;;
22449;SDS011;11392;57.390;-2.468;2022-07-06T06:46:23;0.30;;;0.00;;
22449;SDS011;11392;57.390;-2.468;2022-07-06T06:48:50;0.10;;;0.00;;
22449;SDS011;11392;57.390;-2.468;2022-07-06T06:51:17;0.00;;;0.00;;
22449;SDS011;11392;57.390;-2.468;2022-07-06T06:53:44;0.35;;;0.10;;
22449;SDS011;11392;57.390;-2.468;2022-07-06T06:56:11;0.10;;;0.10;;
22449;SDS011;11392;57.390;-2.468;2022-07-06T06:58:38;0.05;;;0.00;;
22449;SDS011;11392;57.390;-2.468;2022-07-06T07:01:25;0.37;;;0.00;;
22449;SDS011;11392;57.390;-2.468;2022-07-06T07:03:52;0.10;;;0.00;;
22449;SDS011;11392;57.390;-2.468;2022-07-06T07:06:21;0.20;;;0.10;;
22449;SDS011;11392;57.390;-2.468;2022-07-06T07:08:48;0.05;;;0.05;;
22449;SDS011;11392;57.390;-2.468;2022-07-06T07:11:15;1.20;;;0.10;;
22449;SDS011;11392;57.390;-2.468;2022-07-06T07:13:42;0.10;;;0.10;;
22449;SDS011;11392;57.390;-2.468;2022-07-06T07:16:09;0.10;;;0.10;;
22449;SDS011;11392;57.390;-2.468;2022-07-06T07:18:36;0.10;;;0.10;;
22449;SDS011;11392;57.390;-2.468;2022-07-06T07:21:04;0.10;;;0.10;;
22449;SDS011;11392;57.390;-2.468;2022-07-06T07:23:31;0.10;;;0.10;;
22449;SDS011;11392;57.390;-2.468;2022-07-06T07:25:58;0.20;;;0.10;;
22449;SDS011;11392;57.390;-2.468;2022-07-06T07:28:25;1.00;;;0.00;;
22449;SDS011;11392;57.390;-2.468;2022-07-06T07:30:52;0.00;;;0.00;;
22449;SDS011;11392;57.390;-2.468;2022-07-06T07:33:19;0.10;;;0.10;;
22449;SDS011;11392;57.390;-2.468;2022-07-06T07:35:47;0.17;;;0.10;;
22449;SDS011;11392;57.390;-2.468;2022-07-06T07:38:14;0.10;;;0.10;;
22449;SDS011;11392;57.390;-2.468;2022-07-06T07:40:41;0.10;;;0.10;;
22449;SDS011;11392;57.390;-2.468;2022-07-06T07:43:08;0.20;;;0.20;;
22449;SDS011;11392;57.390;-2.468;2022-07-06T07:45:35;0.28;;;0.28;;
22449;SDS011;11392;57.390;-2.468;2022-07-06T07:48:02;0.10;;;0.10;;
22449;SDS011;11392;57.390;-2.468;2022-07-06T07:50:30;0.82;;;0.20;;
22449;SDS011;11392;57.390;-2.468;2022-07-06T07:52:57;0.10;;;0.10;;
22449;SDS011;11392;57.390;-2.468;2022-07-06T07:55:24;0.15;;;0.15;;
22449;SDS011;11392;57.390;-2.468;2022-07-06T07:58:08;0.10;;;0.10;;
22449;SDS011;11392;57.390;-2.468;2022-07-06T08:00:35;0.20;;;0.20;;
22449;SDS011;11392;57.390;-2.468;2022-07-06T08:03:03;0.22;;;0.20;;
22449;SDS011;11392;57.390;-2.468;2022-07-06T08:05:30;0.30;;;0.20;;
22449;SDS011;11392;57.390;-2.468;2022-07-06T08:07:57;0.20;;;0.20;;
22449;SDS011;11392;57.390;-2.468;2022-07-06T08:10:24;0.30;;;0.20;;
22449;SDS011;11392;57.390;-2.468;2022-07-06T08:12:51;0.20;;;0.20;;
22449;SDS011;11392;57.390;-2.468;2022-07-06T08:15:18;0.10;;;0.10;;
22449;SDS011;11392;57.390;-2.468;2022-07-06T08:17:45;0.20;;;0.20;;
22449;SDS011;11392;57.390;-2.468;2022-07-06T08:20:12;0.50;;;0.20;;
22449;SDS011;11392;57.390;-2.468;2022-07-06T08:22:41;0.20;;;0.20;;
22449;SDS011;11392;57.390;-2.468;2022-07-06T08:25:09;0.20;;;0.20;;
22449;SDS011;11392;57.390;-2.468;2022-07-06T08:27:36;0.17;;;0.17;;
22449;SDS011;11392;57.390;-2.468;2022-07-06T08:30:04;0.20;;;0.20;;
22449;SDS011;11392;57.390;-2.468;2022-07-06T08:32:31;0.80;;;0.10;;
22449;SDS011;11392;57.390;-2.468;2022-07-06T08:35:18;0.20;;;0.20;;
22449;SDS011;11392;57.390;-2.468;2022-07-06T08:37:45;0.55;;;0.30;;
22449;SDS011;11392;57.390;-2.468;2022-07-06T08:40:12;0.40;;;0.40;;
22449;SDS011;11392;57.390;-2.468;2022-07-06T08:42:40;0.17;;;0.17;;
22449;SDS011;11392;57.390;-2.468;2022-07-06T08:45:10;1.17;;;0.20;;
22449;SDS011;11392;57.390;-2.468;2022-07-06T08:47:38;0.30;;;0.30;;
22449;SDS011;11392;57.390;-2.468;2022-07-06T08:50:08;0.30;;;0.20;;
22449;SDS011;11392;57.390;-2.468;2022-07-06T08:52:36;0.30;;;0.30;;
22449;SDS011;11392;57.390;-2.468;2022-07-06T08:55:03;0.40;;;0.30;;
22449;SDS011;11392;57.390;-2.468;2022-07-06T08:57:30;1.23;;;0.30;;
22449;SDS011;11392;57.390;-2.468;2022-07-06T08:59:57;0.82;;;0.40;;
22449;SDS011;11392;57.390;-2.468;2022-07-06T09:02:25;0.50;;;0.40;;
22449;SDS011;11392;57.390;-2.468;2022-07-06T09:04:54;0.68;;;0.50;;
22449;SDS011;11392;57.390;-2.468;2022-07-06T09:07:23;0.30;;;0.30;;
22449;SDS011;11392;57.390;-2.468;2022-07-06T09:10:15;1.42;;;0.60;;
22449;SDS011;11392;57.390;-2.468;2022-07-06T09:12:44;0.40;;;0.40;;
22449;SDS011;11392;57.390;-2.468;2022-07-06T09:15:11;0.40;;;0.40;;
22449;SDS011;11392;57.390;-2.468;2022-07-06T09:17:39;0.60;;;0.60;;
22449;SDS011;11392;57.390;-2.468;2022-07-06T09:20:08;0.40;;;0.40;;
22449;SDS011;11392;57.390;-2.468;2022-07-06T09:22:37;1.12;;;0.45;;
22449;SDS011;11392;57.390;-2.468;2022-07-06T09:25:06;2.17;;;0.50;;
22449;SDS011;11392;57.390;-2.468;2022-07-06T09:27:39;1.37;;;0.45;;
22449;SDS011;11392;57.390;-2.468;2022-07-06T09:30:09;0.75;;;0.40;;
22449;SDS011;11392;57.390;-2.468;2022-07-06T09:35:09;0.77;;;0.50;;
22449;SDS011;11392;57.390;-2.468;2022-07-06T09:37:47;0.80;;;0.80;;
22449;SDS011;11392;57.390;-2.468;2022-07-06T09:40:46;0.50;;;0.50;;
22449;SDS011;11392;57.390;-2.468;2022-07-06T09:43:15;1.33;;;0.50;;
22449;SDS011;11392;57.390;-2.468;2022-07-06T09:45:46;0.93;;;0.60;;
22449;SDS011;11392;57.390;-2.468;2022-07-06T09:48:21;0.52;;;0.50;;
22449;SDS011;11392;57.390;-2.468;2022-07-06T09:50:55;1.48;;;0.60;;
22449;SDS011;11392;57.390;-2.468;2022-07-06T09:53:24;1.37;;;0.40;;
22449;SDS011;11392;57.390;-2.468;2022-07-06T09:55:53;0.60;;;0.60;;
22449;SDS011;11392;57.390;-2.468;2022-07-06T09:58:21;0.62;;;0.60;;
22449;SDS011;11392;57.390;-2.468;2022-07-06T10:01:09;0.50;;;0.50;;
22449;SDS011;11392;57.390;-2.468;2022-07-06T10:03:36;1.55;;;0.60;;
22449;SDS011;11392;57.390;-2.468;2022-07-06T10:06:04;0.55;;;0.45;;
22449;SDS011;11392;57.390;-2.468;2022-07-06T10:08:31;0.50;;;0.50;;
22449;SDS011;11392;57.390;-2.468;2022-07-06T10:10:59;1.08;;;0.35;;
22449;SDS011;11392;57.390;-2.468;2022-07-06T10:13:27;1.08;;;0.43;;
22449;SDS011;11392;57.390;-2.468;2022-07-06T10:15:56;0.40;;;0.40;;
22449;SDS011;11392;57.390;-2.468;2022-07-06T10:18:24;0.45;;;0.45;;
22449;SDS011;11392;57.390;-2.468;2022-07-06T10:20:52;0.50;;;0.50;;
22449;SDS011;11392;57.390;-2.468;2022-07-06T10:23:20;2.70;;;0.80;;
22449;SDS011;11392;57.390;-2.468;2022-07-06T10:25:49;0.65;;;0.47;;
22449;SDS011;11392;57.390;-2.468;2022-07-06T10:28:17;0.30;;;0.30;;
22449;SDS011;11392;57.390;-2.468;2022-07-06T10:30:46;0.57;;;0.50;;
22449;SDS011;11392;57.390;-2.468;2022-07-06T10:33:16;0.40;;;0.40;;
22449;SDS011;11392;57.390;-2.468;2022-07-06T10:35:51;2.33;;;0.70;;
22449;SDS011;11392;57.390;-2.468;2022-07-06T10:38:18;0.65;;;0.50;;
22449;SDS011;11392;57.390;-2.468;2022-07-06T10:40:45;0.93;;;0.50;;
22449;SDS011;11392;57.390;-2.468;2022-07-06T10:43:31;0.30;;;0.30;;
22449;SDS011;11392;57.390;-2.468;2022-07-06T10:46:08;0.50;;;0.50;;
22449;SDS011;11392;57.390;-2.468;2022-07-06T10:48:47;0.20;;;0.20;;
22449;SDS011;11392;57.390;-2.468;2022-07-06T10:51:24;0.50;;;0.50;;
22449;SDS011;11392;57.390;-2.468;2022-07-06T10:54:00;0.68;;;0.40;;
22449;SDS011;11392;57.390;-2.468;2022-07-06T10:56:40;1.17;;;0.30;;
22449;SDS011;11392;57.390;-2.468;2022-07-06T11:04:45;0.52;;;0.37;;
22449;SDS011;11392;57.390;-2.468;2022-07-06T11:07:19;0.30;;;0.30;;
22449;SDS011;11392;57.390;-2.468;2022-07-06T11:09:56;0.30;;;0.30;;
22449;SDS011;11392;57.390;-2.468;2022-07-06T11:12:24;1.20;;;0.30;;
22449;SDS011;11392;57.390;-2.468;2022-07-06T11:14:52;1.25;;;0.30;;
22449;SDS011;11392;57.390;-2.468;2022-07-06T11:17:19;0.52;;;0.40;;
22449;SDS011;11392;57.390;-2.468;2022-07-06T11:19:50;0.40;;;0.30;;
22449;SDS011;11392;57.390;-2.468;2022-07-06T11:22:23;1.45;;;0.40;;
22449;SDS011;11392;57.390;-2.468;2022-07-06T11:24:52;0.32;;;0.32;;
22449;SDS011;11392;57.390;-2.468;2022-07-06T11:27:22;0.95;;;0.43;;
22449;SDS011;11392;57.390;-2.468;2022-07-06T11:29:49;0.32;;;0.32;;
22449;SDS011;11392;57.390;-2.468;2022-07-06T11:32:16;1.00;;;0.40;;
22449;SDS011;11392;57.390;-2.468;2022-07-06T11:34:50;0.30;;;0.30;;
22449;SDS011;11392;57.390;-2.468;2022-07-06T11:37:18;0.43;;;0.43;;
22449;SDS011;11392;57.390;-2.468;2022-07-06T11:39:47;0.75;;;0.20;;
22449;SDS011;11392;57.390;-2.468;2022-07-06T11:42:15;0.68;;;0.40;;
22449;SDS011;11392;57.390;-2.468;2022-07-06T11:44:44;0.37;;;0.37;;
22449;SDS011;11392;57.390;-2.468;2022-07-06T11:47:12;0.65;;;0.52;;
22449;SDS011;11392;57.390;-2.468;2022-07-06T11:49:48;0.85;;;0.65;;
22449;SDS011;11392;57.390;-2.468;2022-07-06T11:52:16;0.95;;;0.60;;
22449;SDS011;11392;57.390;-2.468;2022-07-06T11:54:43;0.50;;;0.50;;
22449;SDS011;11392;57.390;-2.468;2022-07-06T11:57:10;0.62;;;0.47;;
22449;SDS011;11392;57.390;-2.468;2022-07-06T11:59:39;0.85;;;0.50;;
22449;SDS011;11392;57.390;-2.468;2022-07-06T12:02:12;1.10;;;0.60;;
22449;SDS011;11392;57.390;-2.468;2022-07-06T12:04:44;0.37;;;0.37;;
22449;SDS011;11392;57.390;-2.468;2022-07-06T12:07:13;1.10;;;0.25;;
22449;SDS011;11392;57.390;-2.468;2022-07-06T12:09:42;0.50;;;0.50;;
22449;SDS011;11392;57.390;-2.468;2022-07-06T12:12:11;0.30;;;0.30;;
22449;SDS011;11392;57.390;-2.468;2022-07-06T12:14:39;0.60;;;0.40;;
22449;SDS011;11392;57.390;-2.468;2022-07-06T12:17:10;0.65;;;0.40;;
22449;SDS011;11392;57.390;-2.468;2022-07-06T12:19:42;0.30;;;0.30;;
22449;SDS011;11392;57.390;-2.468;2022-07-06T12:22:10;1.45;;;0.40;;
22449;SDS011;11392;57.390;-2.468;2022-07-06T12:24:37;2.28;;;0.30;;
22449;SDS011;11392;57.390;-2.468;2022-07-06T12:27:16;0.37;;;0.37;;
22449;SDS011;11392;57.390;-2.468;2022-07-06T12:29:44;0.22;;;0.22;;
22449;SDS011;11392;57.390;-2.468;2022-07-06T12:32:18;0.43;;;0.40;;
22449;SDS011;11392;57.390;-2.468;2022-07-06T12:35:04;0.45;;;0.32;;
22449;SDS011;11392;57.390;-2.468;2022-07-06T12:37:34;0.62;;;0.30;;
22449;SDS011;11392;57.390;-2.468;2022-07-06T12:40:02;1.62;;;0.35;;
22449;SDS011;11392;57.390;-2.468;2022-07-06T12:42:45;0.77;;;0.10;;
22449;SDS011;11392;57.390;-2.468;2022-07-06T12:45:15;0.47;;;0.47;;
22449;SDS011;11392;57.390;-2.468;2022-07-06T12:47:56;0.35;;;0.30;;
22449;SDS011;11392;57.390;-2.468;2022-07-06T12:50:35;0.73;;;0.43;;
22449;SDS011;11392;57.390;-2.468;2022-07-06T12:53:04;0.32;;;0.20;;
22449;SDS011;11392;57.390;-2.468;2022-07-06T12:55:32;0.50;;;0.22;;
22449;SDS011;11392;57.390;-2.468;2022-07-06T12:57:59;0.32;;;0.30;;
22449;SDS011;11392;57.390;-2.468;2022-07-06T13:00:26;0.10;;;0.10;;
22449;SDS011;11392;57.390;-2.468;2022-07-06T13:02:53;0.20;;;0.10;;
22449;SDS011;11392;57.390;-2.468;2022-07-06T13:05:37;0.22;;;0.17;;
22449;SDS011;11392;57.390;-2.468;2022-07-06T13:08:05;0.32;;;0.10;;
22449;SDS011;11392;57.390;-2.468;2022-07-06T13:10:32;0.10;;;0.10;;
22449;SDS011;11392;57.390;-2.468;2022-07-06T13:13:02;0.35;;;0.10;;
22449;SDS011;11392;57.390;-2.468;2022-07-06T13:15:29;0.10;;;0.10;;
22449;SDS011;11392;57.390;-2.468;2022-07-06T13:17:56;0.00;;;0.00;;
22449;SDS011;11392;57.390;-2.468;2022-07-06T13:20:23;0.10;;;0.10;;
22449;SDS011;11392;57.390;-2.468;2022-07-06T13:22:50;0.10;;;0.10;;
22449;SDS011;11392;57.390;-2.468;2022-07-06T13:25:17;0.10;;;0.10;;
22449;SDS011;11392;57.390;-2.468;2022-07-06T13:27:44;0.10;;;0.10;;
22449;SDS011;11392;57.390;-2.468;2022-07-06T13:30:11;0.20;;;0.20;;
22449;SDS011;11392;57.390;-2.468;2022-07-06T13:32:38;0.40;;;0.10;;
22449;SDS011;11392;57.390;-2.468;2022-07-06T13:35:06;0.10;;;0.10;;
22449;SDS011;11392;57.390;-2.468;2022-07-06T13:37:33;0.10;;;0.10;;
22449;SDS011;11392;57.390;-2.468;2022-07-06T13:40:00;0.40;;;0.10;;
22449;SDS011;11392;57.390;-2.468;2022-07-06T13:42:28;1.10;;;0.20;;
22449;SDS011;11392;57.390;-2.468;2022-07-06T13:44:55;0.15;;;0.10;;
22449;SDS011;11392;57.390;-2.468;2022-07-06T13:47:23;0.47;;;0.10;;
22449;SDS011;11392;57.390;-2.468;2022-07-06T13:49:50;2.17;;;0.90;;
22449;SDS011;11392;57.390;-2.468;2022-07-06T13:52:17;0.30;;;0.10;;
22449;SDS011;11392;57.390;-2.468;2022-07-06T13:54:44;0.37;;;0.20;;
22449;SDS011;11392;57.390;-2.468;2022-07-06T13:57:11;0.22;;;0.20;;
22449;SDS011;11392;57.390;-2.468;2022-07-06T13:59:38;0.20;;;0.20;;
22449;SDS011;11392;57.390;-2.468;2022-07-06T14:02:06;2.60;;;0.25;;
22449;SDS011;11392;57.390;-2.468;2022-07-06T14:04:33;0.20;;;0.20;;
22449;SDS011;11392;57.390;-2.468;2022-07-06T14:07:00;0.62;;;0.17;;
22449;SDS011;11392;57.390;-2.468;2022-07-06T14:09:28;0.17;;;0.17;;
22449;SDS011;11392;57.390;-2.468;2022-07-06T14:11:55;0.20;;;0.20;;
22449;SDS011;11392;57.390;-2.468;2022-07-06T14:14:22;1.23;;;0.20;;
22449;SDS011;11392;57.390;-2.468;2022-07-06T14:16:50;0.35;;;0.20;;
22449;SDS011;11392;57.390;-2.468;2022-07-06T14:19:17;0.37;;;0.20;;
22449;SDS011;11392;57.390;-2.468;2022-07-06T14:21:47;0.85;;;0.30;;
22449;SDS011;11392;57.390;-2.468;2022-07-06T14:24:15;1.55;;;0.35;;
22449;SDS011;11392;57.390;-2.468;2022-07-06T14:26:42;0.28;;;0.28;;
22449;SDS011;11392;57.390;-2.468;2022-07-06T14:29:09;2.75;;;0.28;;
22449;SDS011;11392;57.390;-2.468;2022-07-06T14:31:36;0.62;;;0.40;;
22449;SDS011;11392;57.390;-2.468;2022-07-06T14:34:03;0.20;;;0.20;;
22449;SDS011;11392;57.390;-2.468;2022-07-06T14:36:30;0.32;;;0.30;;
22449;SDS011;11392;57.390;-2.468;2022-07-06T14:38:57;0.30;;;0.30;;
22449;SDS011;11392;57.390;-2.468;2022-07-06T14:41:24;0.10;;;0.00;;
22449;SDS011;11392;57.390;-2.468;2022-07-06T14:43:51;0.25;;;0.25;;
22449;SDS011;11392;57.390;-2.468;2022-07-06T14:46:18;0.30;;;0.30;;
22449;SDS011;11392;57.390;-2.468;2022-07-06T14:48:45;0.30;;;0.30;;